sensor_id;sensor_type;location;lat;lon;timestamp;pressure;altitude;pressure_sealevel;temperature;humidity
75775;BME280;64505;51.458;7.556;2022-12-16T00:00:21;99138.94;;;-6.97;84.33
75775;BME280;64505;51.458;7.556;2022-12-16T00:02:23;99140.81;;;-6.99;84.32
75775;BME280;64505;51.458;7.556;2022-12-16T00:04:24;99135.69;;;-6.99;84.08
75775;BME280;64505;51.458;7.556;2022-12-16T00:06:29;99136.63;;;-7.00;84.07
75775;BME280;64505;51.458;7.556;2022-12-16T00:08:33;99132.56;;;-7.02;83.35
75775;BME280;64505;51.458;7.556;2022-12-16T00:10:35;99139.44;;;-7.03;83.73
75775;BME280;64505;51.458;7.556;2022-12-16T00:12:53;99135.34;;;-7.05;84.04
75775;BME280;64505;51.458;7.556;2022-12-16T00:14:55;99138.16;;;-7.08;83.65
75775;BME280;64505;51.458;7.556;2022-12-16T00:16:56;99135.75;;;-7.10;83.90
75775;BME280;64505;51.458;7.556;2022-12-16T00:18:58;99135.84;;;-7.11;83.61
75775;BME280;64505;51.458;7.556;2022-12-16T00:21:00;99136.94;;;-7.14;83.10
75775;BME280;64505;51.458;7.556;2022-12-16T00:23:01;99140.44;;;-7.15;83.67
75775;BME280;64505;51.458;7.556;2022-12-16T00:25:03;99144.06;;;-7.17;83.49
75775;BME280;64505;51.458;7.556;2022-12-16T00:27:04;99145.00;;;-7.18;84.11
75775;BME280;64505;51.458;7.556;2022-12-16T00:29:06;99146.06;;;-7.21;82.83
75775;BME280;64505;51.458;7.556;2022-12-16T00:31:07;99138.63;;;-7.24;83.69
75775;BME280;64505;51.458;7.556;2022-12-16T00:33:09;99140.38;;;-7.24;84.02
75775;BME280;64505;51.458;7.556;2022-12-16T00:35:10;99138.75;;;-7.25;84.74
75775;BME280;64505;51.458;7.556;2022-12-16T00:37:12;99138.84;;;-7.27;84.43
75775;BME280;64505;51.458;7.556;2022-12-16T00:39:13;99141.31;;;-7.25;84.36
75775;BME280;64505;51.458;7.556;2022-12-16T00:41:14;99144.81;;;-7.26;83.81
75775;BME280;64505;51.458;7.556;2022-12-16T00:43:16;99149.25;;;-7.28;84.41
75775;BME280;64505;51.458;7.556;2022-12-16T00:45:18;99149.63;;;-7.33;83.94
75775;BME280;64505;51.458;7.556;2022-12-16T00:47:19;99144.50;;;-7.33;84.15
75775;BME280;64505;51.458;7.556;2022-12-16T00:49:20;99146.25;;;-7.33;84.36
75775;BME280;64505;51.458;7.556;2022-12-16T00:51:22;99148.69;;;-7.32;84.77
75775;BME280;64505;51.458;7.556;2022-12-16T00:53:24;99148.00;;;-7.34;83.86
75775;BME280;64505;51.458;7.556;2022-12-16T00:55:25;99149.88;;;-7.36;83.70
75775;BME280;64505;51.458;7.556;2022-12-16T00:57:27;99155.13;;;-7.37;83.92
75775;BME280;64505;51.458;7.556;2022-12-16T00:59:28;99143.09;;;-7.37;83.33
75775;BME280;64505;51.458;7.556;2022-12-16T01:01:30;99142.28;;;-7.37;84.38
75775;BME280;64505;51.458;7.556;2022-12-16T01:03:32;99142.53;;;-7.40;83.77
75775;BME280;64505;51.458;7.556;2022-12-16T01:05:36;99152.00;;;-7.41;83.54
75775;BME280;64505;51.458;7.556;2022-12-16T01:07:38;99141.72;;;-7.41;84.09
75775;BME280;64505;51.458;7.556;2022-12-16T01:09:40;99141.03;;;-7.43;83.80
75775;BME280;64505;51.458;7.556;2022-12-16T01:11:41;99144.44;;;-7.42;84.51
75775;BME280;64505;51.458;7.556;2022-12-16T01:13:43;99150.38;;;-7.42;83.60
75775;BME280;64505;51.458;7.556;2022-12-16T01:15:45;99151.31;;;-7.43;84.81
75775;BME280;64505;51.458;7.556;2022-12-16T01:17:46;99157.25;;;-7.42;85.12
75775;BME280;64505;51.458;7.556;2022-12-16T01:19:48;99158.19;;;-7.43;84.64
75775;BME280;64505;51.458;7.556;2022-12-16T01:21:50;99155.88;;;-7.47;84.31
75775;BME280;64505;51.458;7.556;2022-12-16T01:23:52;99158.56;;;-7.48;83.97
75775;BME280;64505;51.458;7.556;2022-12-16T01:25:57;99161.25;;;-7.50;83.16
75775;BME280;64505;51.458;7.556;2022-12-16T01:27:59;99157.97;;;-7.52;83.32
75775;BME280;64505;51.458;7.556;2022-12-16T01:30:00;99165.56;;;-7.50;83.38
75775;BME280;64505;51.458;7.556;2022-12-16T01:32:02;99165.69;;;-7.52;84.17
75775;BME280;64505;51.458;7.556;2022-12-16T01:34:03;99164.28;;;-7.56;83.74
75775;BME280;64505;51.458;7.556;2022-12-16T01:36:06;99172.00;;;-7.56;83.92
75775;BME280;64505;51.458;7.556;2022-12-16T01:38:08;99173.06;;;-7.58;83.53
75775;BME280;64505;51.458;7.556;2022-12-16T01:40:17;99170.75;;;-7.61;83.34
75775;BME280;64505;51.458;7.556;2022-12-16T01:42:21;99181.94;;;-7.62;83.57
75775;BME280;64505;51.458;7.556;2022-12-16T01:44:24;99179.38;;;-7.62;83.37
75775;BME280;64505;51.458;7.556;2022-12-16T01:46:26;99175.31;;;-7.65;83.05
75775;BME280;64505;51.458;7.556;2022-12-16T01:50:34;99179.63;;;-7.65;84.08
75775;BME280;64505;51.458;7.556;2022-12-16T01:52:39;99176.94;;;-7.64;83.49
75775;BME280;64505;51.458;7.556;2022-12-16T01:54:47;99177.97;;;-7.66;83.78
75775;BME280;64505;51.458;7.556;2022-12-16T01:56:54;99174.59;;;-7.67;83.01
75775;BME280;64505;51.458;7.556;2022-12-16T01:58:58;99173.00;;;-7.68;83.70
75775;BME280;64505;51.458;7.556;2022-12-16T02:01:00;99176.38;;;-7.67;83.73
75775;BME280;64505;51.458;7.556;2022-12-16T02:03:04;99177.31;;;-7.68;83.65
75775;BME280;64505;51.458;7.556;2022-12-16T02:05:07;99177.41;;;-7.70;83.27
75775;BME280;64505;51.458;7.556;2022-12-16T02:07:23;99174.16;;;-7.72;83.87
75775;BME280;64505;51.458;7.556;2022-12-16T02:09:25;99179.28;;;-7.72;83.99
75775;BME280;64505;51.458;7.556;2022-12-16T02:19:04;99181.53;;;-7.78;83.53
75775;BME280;64505;51.458;7.556;2022-12-16T02:21:19;99185.03;;;-7.79;83.67
75775;BME280;64505;51.458;7.556;2022-12-16T02:35:42;99188.44;;;-7.90;82.95
75775;BME280;64505;51.458;7.556;2022-12-16T02:38:26;99193.81;;;-7.93;83.35
75775;BME280;64505;51.458;7.556;2022-12-16T02:40:33;99187.84;;;-7.93;83.32
75775;BME280;64505;51.458;7.556;2022-12-16T02:42:44;99186.94;;;-7.92;82.26
75775;BME280;64505;51.458;7.556;2022-12-16T02:44:56;99193.22;;;-7.97;82.93
75775;BME280;64505;51.458;7.556;2022-12-16T02:47:00;99192.41;;;-7.97;82.29
75775;BME280;64505;51.458;7.556;2022-12-16T02:49:48;99186.44;;;-7.98;82.74
75775;BME280;64505;51.458;7.556;2022-12-16T02:51:29;99184.00;;;-7.99;82.17
75775;BME280;64505;51.458;7.556;2022-12-16T02:53:32;99185.06;;;-8.02;82.14
75775;BME280;64505;51.458;7.556;2022-12-16T02:55:58;99185.19;;;-8.03;83.28
75775;BME280;64505;51.458;7.556;2022-12-16T02:58:22;99180.28;;;-8.06;83.24
75775;BME280;64505;51.458;7.556;2022-12-16T03:00:34;99186.22;;;-8.06;81.31
75775;BME280;64505;51.458;7.556;2022-12-16T03:04:51;99188.22;;;-8.09;82.80
75775;BME280;64505;51.458;7.556;2022-12-16T03:06:55;99193.34;;;-8.09;82.75
75775;BME280;64505;51.458;7.556;2022-12-16T03:09:01;99192.75;;;-8.13;82.39
75775;BME280;64505;51.458;7.556;2022-12-16T03:11:05;99186.81;;;-8.13;82.21
75775;BME280;64505;51.458;7.556;2022-12-16T03:13:10;99182.84;;;-8.17;82.36
75775;BME280;64505;51.458;7.556;2022-12-16T03:15:20;99185.53;;;-8.19;82.69
75775;BME280;64505;51.458;7.556;2022-12-16T03:17:23;99188.22;;;-8.20;83.21
75775;BME280;64505;51.458;7.556;2022-12-16T03:19:26;99185.66;;;-8.20;82.76
75775;BME280;64505;51.458;7.556;2022-12-16T03:21:33;99189.16;;;-8.21;82.18
75775;BME280;64505;51.458;7.556;2022-12-16T03:23:46;99188.34;;;-8.22;83.03
75775;BME280;64505;51.458;7.556;2022-12-16T03:25:53;99188.59;;;-8.25;83.04
75775;BME280;64505;51.458;7.556;2022-12-16T03:30:16;99190.44;;;-8.27;82.26
75775;BME280;64505;51.458;7.556;2022-12-16T03:32:36;99181.09;;;-8.28;82.68
75775;BME280;64505;51.458;7.556;2022-12-16T03:34:55;99192.19;;;-8.27;82.30
75775;BME280;64505;51.458;7.556;2022-12-16T03:37:02;99193.16;;;-8.28;82.99
75775;BME280;64505;51.458;7.556;2022-12-16T03:39:06;99188.97;;;-8.29;82.18
75775;BME280;64505;51.458;7.556;2022-12-16T03:41:08;99189.88;;;-8.30;82.80
75775;BME280;64505;51.458;7.556;2022-12-16T03:43:11;99193.38;;;-8.31;82.20
75775;BME280;64505;51.458;7.556;2022-12-16T03:45:21;99196.06;;;-8.33;82.35
75775;BME280;64505;51.458;7.556;2022-12-16T03:47:26;99197.09;;;-8.35;82.80
75775;BME280;64505;51.458;7.556;2022-12-16T03:49:28;99198.75;;;-8.34;82.49
75775;BME280;64505;51.458;7.556;2022-12-16T03:51:30;99195.50;;;-8.36;82.71
75775;BME280;64505;51.458;7.556;2022-12-16T03:53:31;99199.06;;;-8.39;82.84
75775;BME280;64505;51.458;7.556;2022-12-16T03:55:33;99206.91;;;-8.40;81.56
75775;BME280;64505;51.458;7.556;2022-12-16T03:57:35;99206.06;;;-8.41;81.73
75775;BME280;64505;51.458;7.556;2022-12-16T03:59:36;99210.28;;;-8.40;82.10
75775;BME280;64505;51.458;7.556;2022-12-16T04:01:38;99208.53;;;-8.39;81.30
75775;BME280;64505;51.458;7.556;2022-12-16T04:03:39;99206.91;;;-8.40;83.23
75775;BME280;64505;51.458;7.556;2022-12-16T04:05:41;99206.19;;;-8.42;82.19
75775;BME280;64505;51.458;7.556;2022-12-16T04:07:42;99207.13;;;-8.43;82.07
75775;BME280;64505;51.458;7.556;2022-12-16T04:09:44;99207.00;;;-8.42;81.67
75775;BME280;64505;51.458;7.556;2022-12-16T04:11:45;99209.81;;;-8.45;83.25
75775;BME280;64505;51.458;7.556;2022-12-16T04:14:07;99206.56;;;-8.47;82.73
75775;BME280;64505;51.458;7.556;2022-12-16T04:16:28;99208.41;;;-8.49;81.23
75775;BME280;64505;51.458;7.556;2022-12-16T04:18:48;99209.94;;;-8.46;82.46
75775;BME280;64505;51.458;7.556;2022-12-16T04:21:09;99203.28;;;-8.49;81.29
75775;BME280;64505;51.458;7.556;2022-12-16T04:23:31;99209.44;;;-8.52;82.58
75775;BME280;64505;51.458;7.556;2022-12-16T04:25:52;99212.00;;;-8.52;82.02
75775;BME280;64505;51.458;7.556;2022-12-16T04:27:59;99210.38;;;-8.53;81.72
75775;BME280;64505;51.458;7.556;2022-12-16T04:30:01;99207.13;;;-8.55;82.83
75775;BME280;64505;51.458;7.556;2022-12-16T04:32:20;99216.56;;;-8.55;82.58
75775;BME280;64505;51.458;7.556;2022-12-16T04:34:22;99222.59;;;-8.56;83.00
75775;BME280;64505;51.458;7.556;2022-12-16T04:36:27;99226.69;;;-8.54;82.62
75775;BME280;64505;51.458;7.556;2022-12-16T04:38:47;99236.25;;;-8.56;81.17
75775;BME280;64505;51.458;7.556;2022-12-16T04:41:07;99229.47;;;-8.57;82.25
75775;BME280;64505;51.458;7.556;2022-12-16T04:43:27;99229.59;;;-8.58;82.09
75775;BME280;64505;51.458;7.556;2022-12-16T04:45:47;99238.31;;;-8.61;83.23
75775;BME280;64505;51.458;7.556;2022-12-16T04:48:07;99239.13;;;-8.60;82.68
75775;BME280;64505;51.458;7.556;2022-12-16T04:50:27;99239.13;;;-8.60;82.88
75775;BME280;64505;51.458;7.556;2022-12-16T04:52:49;99239.97;;;-8.60;82.59
75775;BME280;64505;51.458;7.556;2022-12-16T04:55:16;99244.97;;;-8.58;82.98
75775;BME280;64505;51.458;7.556;2022-12-16T04:57:36;99246.72;;;-8.59;83.32
75775;BME280;64505;51.458;7.556;2022-12-16T04:59:57;99250.34;;;-8.61;83.48
75775;BME280;64505;51.458;7.556;2022-12-16T05:02:16;99255.47;;;-8.61;82.75
75775;BME280;64505;51.458;7.556;2022-12-16T05:04:47;99255.34;;;-8.60;83.07
75775;BME280;64505;51.458;7.556;2022-12-16T05:07:07;99257.19;;;-8.62;82.60
75775;BME280;64505;51.458;7.556;2022-12-16T05:09:26;99258.81;;;-8.61;83.24
75775;BME280;64505;51.458;7.556;2022-12-16T05:11:47;99258.94;;;-8.62;81.83
75775;BME280;64505;51.458;7.556;2022-12-16T05:14:07;99256.38;;;-8.62;83.05
75775;BME280;64505;51.458;7.556;2022-12-16T05:16:27;99256.63;;;-8.65;82.18
75775;BME280;64505;51.458;7.556;2022-12-16T05:18:47;99260.78;;;-8.64;81.42
75775;BME280;64505;51.458;7.556;2022-12-16T05:21:31;99264.31;;;-8.65;81.78
75775;BME280;64505;51.458;7.556;2022-12-16T05:23:51;99262.66;;;-8.66;81.43
75775;BME280;64505;51.458;7.556;2022-12-16T05:26:35;99267.69;;;-8.65;82.37
75775;BME280;64505;51.458;7.556;2022-12-16T05:28:55;99264.31;;;-8.65;81.98
75775;BME280;64505;51.458;7.556;2022-12-16T05:31:15;99266.97;;;-8.67;82.05
75775;BME280;64505;51.458;7.556;2022-12-16T05:33:35;99270.44;;;-8.68;83.13
75775;BME280;64505;51.458;7.556;2022-12-16T05:35:55;99271.50;;;-8.70;82.50
75775;BME280;64505;51.458;7.556;2022-12-16T05:38:14;99268.13;;;-8.71;82.12
75775;BME280;64505;51.458;7.556;2022-12-16T05:40:35;99280.94;;;-8.71;83.13
75775;BME280;64505;51.458;7.556;2022-12-16T05:42:55;99276.84;;;-8.73;82.38
75775;BME280;64505;51.458;7.556;2022-12-16T05:45:17;99292.13;;;-8.72;82.49
75775;BME280;64505;51.458;7.556;2022-12-16T05:47:38;99291.41;;;-8.74;82.67
75775;BME280;64505;51.458;7.556;2022-12-16T05:49:59;99295.59;;;-8.73;82.31
75775;BME280;64505;51.458;7.556;2022-12-16T05:52:19;99298.28;;;-8.74;83.05
75775;BME280;64505;51.458;7.556;2022-12-16T05:54:39;99290.72;;;-8.76;82.26
75775;BME280;64505;51.458;7.556;2022-12-16T05:56:59;99290.81;;;-8.77;81.99
75775;BME280;64505;51.458;7.556;2022-12-16T05:59:21;99298.50;;;-8.77;82.14
75775;BME280;64505;51.458;7.556;2022-12-16T06:01:40;99303.53;;;-8.76;82.45
75775;BME280;64505;51.458;7.556;2022-12-16T06:04:00;99310.47;;;-8.78;82.62
75775;BME280;64505;51.458;7.556;2022-12-16T06:06:21;99313.28;;;-8.81;81.53
75775;BME280;64505;51.458;7.556;2022-12-16T06:08:41;99315.84;;;-8.81;82.07
75775;BME280;64505;51.458;7.556;2022-12-16T06:11:01;99320.97;;;-8.81;82.33
75775;BME280;64505;51.458;7.556;2022-12-16T06:13:20;99325.38;;;-8.83;81.70
75775;BME280;64505;51.458;7.556;2022-12-16T06:15:41;99322.81;;;-8.83;81.71
75775;BME280;64505;51.458;7.556;2022-12-16T06:18:08;99326.09;;;-8.81;81.75
75775;BME280;64505;51.458;7.556;2022-12-16T06:20:28;99325.16;;;-8.80;81.53
75775;BME280;64505;51.458;7.556;2022-12-16T06:22:52;99332.94;;;-8.81;81.64
75775;BME280;64505;51.458;7.556;2022-12-16T06:25:12;99336.56;;;-8.84;82.24
75775;BME280;64505;51.458;7.556;2022-12-16T06:27:32;99335.84;;;-8.86;81.51
75775;BME280;64505;51.458;7.556;2022-12-16T06:29:52;99341.69;;;-8.84;83.33
75775;BME280;64505;51.458;7.556;2022-12-16T06:32:12;99347.72;;;-8.85;83.91
75775;BME280;64505;51.458;7.556;2022-12-16T06:34:32;99340.97;;;-8.86;82.20
75775;BME280;64505;51.458;7.556;2022-12-16T06:36:51;99351.19;;;-8.86;82.45
75775;BME280;64505;51.458;7.556;2022-12-16T06:39:11;99353.66;;;-8.84;82.25
75775;BME280;64505;51.458;7.556;2022-12-16T06:41:31;99361.34;;;-8.84;84.26
75775;BME280;64505;51.458;7.556;2022-12-16T06:43:50;99362.19;;;-8.84;82.55
75775;BME280;64505;51.458;7.556;2022-12-16T06:46:10;99368.22;;;-8.85;84.22
75775;BME280;64505;51.458;7.556;2022-12-16T06:48:30;99364.13;;;-8.87;82.44
75775;BME280;64505;51.458;7.556;2022-12-16T06:50:50;99363.22;;;-8.86;82.02
75775;BME280;64505;51.458;7.556;2022-12-16T06:53:10;99367.75;;;-8.90;82.09
75775;BME280;64505;51.458;7.556;2022-12-16T06:55:30;99380.56;;;-8.90;82.44
75775;BME280;64505;51.458;7.556;2022-12-16T06:57:56;99383.22;;;-8.91;82.53
75775;BME280;64505;51.458;7.556;2022-12-16T07:00:16;99394.38;;;-8.92;82.94
75775;BME280;64505;51.458;7.556;2022-12-16T07:02:36;99396.13;;;-8.93;81.91
75775;BME280;64505;51.458;7.556;2022-12-16T07:04:56;99399.50;;;-8.92;81.50
75775;BME280;64505;51.458;7.556;2022-12-16T07:07:16;99412.44;;;-8.94;82.82
75775;BME280;64505;51.458;7.556;2022-12-16T07:09:36;99401.34;;;-8.94;80.85
75775;BME280;64505;51.458;7.556;2022-12-16T07:11:55;99413.25;;;-8.93;82.07
75775;BME280;64505;51.458;7.556;2022-12-16T07:14:15;99409.75;;;-8.92;81.87
75775;BME280;64505;51.458;7.556;2022-12-16T07:16:35;99413.25;;;-8.93;83.20
75775;BME280;64505;51.458;7.556;2022-12-16T07:19:19;99410.88;;;-8.97;83.18
75775;BME280;64505;51.458;7.556;2022-12-16T07:21:39;99421.94;;;-8.96;82.82
75775;BME280;64505;51.458;7.556;2022-12-16T07:23:59;99423.59;;;-8.95;81.27
75775;BME280;64505;51.458;7.556;2022-12-16T07:26:19;99419.50;;;-8.98;82.68
75775;BME280;64505;51.458;7.556;2022-12-16T07:28:38;99437.22;;;-8.94;83.09
75775;BME280;64505;51.458;7.556;2022-12-16T07:30:58;99439.06;;;-8.97;81.64
75775;BME280;64505;51.458;7.556;2022-12-16T07:33:18;99439.88;;;-8.96;81.16
75775;BME280;64505;51.458;7.556;2022-12-16T07:35:41;99443.25;;;-8.95;83.78
75775;BME280;64505;51.458;7.556;2022-12-16T07:38:02;99448.16;;;-8.92;83.78
75775;BME280;64505;51.458;7.556;2022-12-16T07:40:22;99452.38;;;-8.91;83.03
75775;BME280;64505;51.458;7.556;2022-12-16T07:42:45;99458.81;;;-8.86;83.09
75775;BME280;64505;51.458;7.556;2022-12-16T07:45:05;99464.75;;;-8.85;83.24
75775;BME280;64505;51.458;7.556;2022-12-16T07:47:26;99466.63;;;-8.87;82.62
75775;BME280;64505;51.458;7.556;2022-12-16T07:49:45;99473.25;;;-8.85;82.78
75775;BME280;64505;51.458;7.556;2022-12-16T07:52:05;99480.72;;;-8.82;82.71
75775;BME280;64505;51.458;7.556;2022-12-16T07:54:25;99479.09;;;-8.83;81.86
75775;BME280;64505;51.458;7.556;2022-12-16T07:56:45;99482.47;;;-8.82;81.78
75775;BME280;64505;51.458;7.556;2022-12-16T07:59:05;99483.88;;;-8.78;82.38
75775;BME280;64505;51.458;7.556;2022-12-16T08:01:24;99488.31;;;-8.80;80.89
75775;BME280;64505;51.458;7.556;2022-12-16T08:03:44;99495.69;;;-8.76;80.42
75775;BME280;64505;51.458;7.556;2022-12-16T08:06:04;99494.75;;;-8.75;82.44
75775;BME280;64505;51.458;7.556;2022-12-16T08:08:25;99504.59;;;-8.69;82.32
75775;BME280;64505;51.458;7.556;2022-12-16T08:10:45;99507.84;;;-8.67;81.57
75775;BME280;64505;51.458;7.556;2022-12-16T08:13:04;99500.91;;;-8.65;80.80
75775;BME280;64505;51.458;7.556;2022-12-16T08:15:44;99510.28;;;-8.53;82.44
75775;BME280;64505;51.458;7.556;2022-12-16T08:18:04;99509.03;;;-8.47;82.87
75775;BME280;64505;51.458;7.556;2022-12-16T08:20:25;99516.59;;;-8.45;81.71
75775;BME280;64505;51.458;7.556;2022-12-16T08:22:44;99527.47;;;-8.42;82.80
75775;BME280;64505;51.458;7.556;2022-12-16T08:25:04;99522.13;;;-8.39;82.59
75775;BME280;64505;51.458;7.556;2022-12-16T08:27:24;99525.91;;;-8.32;81.93
75775;BME280;64505;51.458;7.556;2022-12-16T08:29:44;99532.09;;;-8.23;83.78
75775;BME280;64505;51.458;7.556;2022-12-16T08:32:04;99534.22;;;-8.17;81.58
75775;BME280;64505;51.458;7.556;2022-12-16T08:34:24;99531.91;;;-8.09;83.74
75775;BME280;64505;51.458;7.556;2022-12-16T08:36:44;99529.72;;;-8.03;83.36
75775;BME280;64505;51.458;7.556;2022-12-16T08:39:03;99529.41;;;-7.98;83.28
75775;BME280;64505;51.458;7.556;2022-12-16T08:41:24;99530.38;;;-7.88;83.88
75775;BME280;64505;51.458;7.556;2022-12-16T08:43:43;99529.00;;;-7.81;83.71
75775;BME280;64505;51.458;7.556;2022-12-16T08:46:04;99530.09;;;-7.72;84.79
75775;BME280;64505;51.458;7.556;2022-12-16T08:48:24;99538.28;;;-7.67;84.97
75775;BME280;64505;51.458;7.556;2022-12-16T08:50:43;99538.75;;;-7.62;84.53
75775;BME280;64505;51.458;7.556;2022-12-16T08:53:03;99543.34;;;-7.55;83.56
75775;BME280;64505;51.458;7.556;2022-12-16T08:55:23;99541.94;;;-7.48;83.65
75775;BME280;64505;51.458;7.556;2022-12-16T08:57:51;99536.47;;;-7.43;84.23
75775;BME280;64505;51.458;7.556;2022-12-16T09:00:12;99538.34;;;-7.34;84.49
75775;BME280;64505;51.458;7.556;2022-12-16T09:02:32;99544.81;;;-7.28;83.98
75775;BME280;64505;51.458;7.556;2022-12-16T09:04:53;99535.13;;;-7.25;84.04
75775;BME280;64505;51.458;7.556;2022-12-16T09:07:13;99546.47;;;-7.16;84.07
75775;BME280;64505;51.458;7.556;2022-12-16T09:09:33;99546.91;;;-7.11;83.95
75775;BME280;64505;51.458;7.556;2022-12-16T09:11:53;99543.88;;;-7.05;83.42
75775;BME280;64505;51.458;7.556;2022-12-16T09:14:13;99558.63;;;-6.96;84.54
75775;BME280;64505;51.458;7.556;2022-12-16T09:16:33;99557.00;;;-6.86;85.08
75775;BME280;64505;51.458;7.556;2022-12-16T09:18:53;99553.00;;;-6.79;84.79
75775;BME280;64505;51.458;7.556;2022-12-16T09:21:13;99555.34;;;-6.76;84.98
75775;BME280;64505;51.458;7.556;2022-12-16T09:24:04;99561.56;;;-6.67;85.06
75775;BME280;64505;51.458;7.556;2022-12-16T09:26:23;99568.78;;;-6.61;85.64
75775;BME280;64505;51.458;7.556;2022-12-16T09:28:43;99564.94;;;-6.56;84.78
75775;BME280;64505;51.458;7.556;2022-12-16T09:31:26;99569.50;;;-6.48;84.74
75775;BME280;64505;51.458;7.556;2022-12-16T09:33:46;99577.56;;;-6.41;84.64
75775;BME280;64505;51.458;7.556;2022-12-16T09:36:17;99574.50;;;-6.35;84.87
75775;BME280;64505;51.458;7.556;2022-12-16T09:38:37;99577.53;;;-6.30;86.26
75775;BME280;64505;51.458;7.556;2022-12-16T09:40:58;99578.69;;;-6.23;84.77
75775;BME280;64505;51.458;7.556;2022-12-16T09:44:08;99582.44;;;-6.16;84.20
75775;BME280;64505;51.458;7.556;2022-12-16T09:48:58;99596.91;;;-6.04;84.54
75775;BME280;64505;51.458;7.556;2022-12-16T09:51:20;99587.88;;;-5.99;84.71
75775;BME280;64505;51.458;7.556;2022-12-16T09:53:43;99600.25;;;-5.92;85.03
75775;BME280;64505;51.458;7.556;2022-12-16T09:56:06;99603.16;;;-5.86;85.26
75775;BME280;64505;51.458;7.556;2022-12-16T09:58:35;99598.69;;;-5.84;83.87
75775;BME280;64505;51.458;7.556;2022-12-16T10:00:57;99606.75;;;-5.77;84.59
75775;BME280;64505;51.458;7.556;2022-12-16T10:03:25;99610.47;;;-5.70;83.29
75775;BME280;64505;51.458;7.556;2022-12-16T10:05:59;99605.63;;;-5.64;84.10
75775;BME280;64505;51.458;7.556;2022-12-16T10:12:00;99609.44;;;-5.47;83.45
75775;BME280;64505;51.458;7.556;2022-12-16T10:14:30;99606.25;;;-5.39;83.93
75775;BME280;64505;51.458;7.556;2022-12-16T10:17:06;99603.84;;;-5.31;85.13
75775;BME280;64505;51.458;7.556;2022-12-16T10:22:42;99617.97;;;-5.15;84.70
75775;BME280;64505;51.458;7.556;2022-12-16T10:25:21;99613.94;;;-5.08;85.60
75775;BME280;64505;51.458;7.556;2022-12-16T10:27:45;99612.59;;;-5.02;84.19
75775;BME280;64505;51.458;7.556;2022-12-16T10:30:11;99615.50;;;-4.96;84.61
75775;BME280;64505;51.458;7.556;2022-12-16T10:32:38;99614.19;;;-4.90;84.62
75775;BME280;64505;51.458;7.556;2022-12-16T10:35:00;99622.38;;;-4.85;84.06
75775;BME280;64505;51.458;7.556;2022-12-16T10:37:32;99624.53;;;-4.80;83.78
75775;BME280;64505;51.458;7.556;2022-12-16T10:39:56;99621.06;;;-4.70;84.14
75775;BME280;64505;51.458;7.556;2022-12-16T10:42:30;99622.59;;;-4.67;85.39
75775;BME280;64505;51.458;7.556;2022-12-16T10:44:54;99632.41;;;-4.61;84.39
75775;BME280;64505;51.458;7.556;2022-12-16T10:47:15;99632.03;;;-4.57;84.69
75775;BME280;64505;51.458;7.556;2022-12-16T10:49:35;99631.50;;;-4.51;84.23
75775;BME280;64505;51.458;7.556;2022-12-16T10:51:56;99628.53;;;-4.46;85.12
75775;BME280;64505;51.458;7.556;2022-12-16T10:56:57;99627.75;;;-4.37;84.45
75775;BME280;64505;51.458;7.556;2022-12-16T10:59:20;99629.66;;;-4.29;84.74
75775;BME280;64505;51.458;7.556;2022-12-16T11:01:40;99627.25;;;-4.21;83.91
75775;BME280;64505;51.458;7.556;2022-12-16T11:04:00;99619.97;;;-4.16;84.07
75775;BME280;64505;51.458;7.556;2022-12-16T11:06:27;99622.94;;;-4.11;83.75
75775;BME280;64505;51.458;7.556;2022-12-16T11:08:55;99631.13;;;-4.06;84.71
75775;BME280;64505;51.458;7.556;2022-12-16T11:11:26;99624.59;;;-4.01;84.43
75775;BME280;64505;51.458;7.556;2022-12-16T11:13:46;99627.47;;;-3.94;84.27
75775;BME280;64505;51.458;7.556;2022-12-16T11:16:10;99633.88;;;-3.88;84.63
75775;BME280;64505;51.458;7.556;2022-12-16T11:18:30;99619.88;;;-3.86;84.13
75775;BME280;64505;51.458;7.556;2022-12-16T11:23:32;99620.47;;;-3.73;84.13
75775;BME280;64505;51.458;7.556;2022-12-16T11:28:37;99617.31;;;-3.57;85.07
75775;BME280;64505;51.458;7.556;2022-12-16T11:31:01;99611.75;;;-3.53;84.49
75775;BME280;64505;51.458;7.556;2022-12-16T11:33:24;99621.44;;;-3.45;84.08
75775;BME280;64505;51.458;7.556;2022-12-16T11:36:05;99620.06;;;-3.39;84.52
75775;BME280;64505;51.458;7.556;2022-12-16T11:38:44;99627.13;;;-3.32;84.53
75775;BME280;64505;51.458;7.556;2022-12-16T11:41:06;99628.22;;;-3.25;84.94
75775;BME280;64505;51.458;7.556;2022-12-16T11:43:28;99631.06;;;-3.18;84.79
75775;BME280;64505;51.458;7.556;2022-12-16T11:45:51;99627.13;;;-3.13;84.70
75775;BME280;64505;51.458;7.556;2022-12-16T11:50:50;99638.00;;;-3.00;84.79
75775;BME280;64505;51.458;7.556;2022-12-16T11:53:44;99632.94;;;-2.91;84.16
75775;BME280;64505;51.458;7.556;2022-12-16T11:56:06;99638.91;;;-2.81;84.59
75775;BME280;64505;51.458;7.556;2022-12-16T11:58:37;99625.69;;;-2.78;84.19
75775;BME280;64505;51.458;7.556;2022-12-16T12:01:08;99633.28;;;-2.67;84.27
75775;BME280;64505;51.458;7.556;2022-12-16T12:03:30;99632.59;;;-2.60;84.68
75775;BME280;64505;51.458;7.556;2022-12-16T12:08:24;99639.78;;;-2.44;83.95
75775;BME280;64505;51.458;7.556;2022-12-16T12:13:40;99637.97;;;-2.34;83.54
75775;BME280;64505;51.458;7.556;2022-12-16T12:16:18;99639.84;;;-2.26;83.19
75775;BME280;64505;51.458;7.556;2022-12-16T12:19:02;99633.00;;;-2.18;83.36
75775;BME280;64505;51.458;7.556;2022-12-16T12:21:27;99643.59;;;-2.11;83.39
75775;BME280;64505;51.458;7.556;2022-12-16T12:26:26;99641.34;;;-1.96;83.59
75775;BME280;64505;51.458;7.556;2022-12-16T12:44:54;99647.28;;;-1.41;82.63
75775;BME280;64505;51.458;7.556;2022-12-16T12:47:18;99644.91;;;-1.35;83.17
75775;BME280;64505;51.458;7.556;2022-12-16T12:55:38;99641.09;;;-1.23;82.66
75775;BME280;64505;51.458;7.556;2022-12-16T12:58:01;99637.94;;;-1.17;82.43
75775;BME280;64505;51.458;7.556;2022-12-16T13:00:23;99643.63;;;-1.13;83.26
75775;BME280;64505;51.458;7.556;2022-12-16T13:02:54;99641.56;;;-1.10;82.50
75775;BME280;64505;51.458;7.556;2022-12-16T13:05:19;99640.13;;;-1.04;82.40
75775;BME280;64505;51.458;7.556;2022-12-16T13:07:39;99639.81;;;-1.01;82.40
75775;BME280;64505;51.458;7.556;2022-12-16T13:15:38;99651.91;;;-0.92;81.84
75775;BME280;64505;51.458;7.556;2022-12-16T13:22:51;99648.72;;;-0.86;81.92
75775;BME280;64505;51.458;7.556;2022-12-16T13:25:31;99659.47;;;-0.81;81.64
75775;BME280;64505;51.458;7.556;2022-12-16T13:27:54;99654.09;;;-0.79;81.52
75775;BME280;64505;51.458;7.556;2022-12-16T13:32:36;99658.72;;;-0.73;81.51